Dolphin — WTD6974 — position and weather

sailwx.info

Track history (hours):
 
Tides and Currents Weather Stations Pressure Air Temp Water Temp Dewpoint Dewpoint Depression Visibility Wind Speed Wind Dir Waves Ship Positions

Dolphin

Owner: PENN MARITIME INC, Seattle, WA. More information available from US FCC via Universal Licensing System and Coast Guard Vessel Documentation Center.

Last reported at 2014-Nov-24 04:21 UTC. Time now 2014-Nov-24 16:27 UTC.
Position N 29°26' W 094°50'.

Length 41 m; draft 6.9 m.

Type: Towing. MMSI: 366920980.

Date/timePositionNaut miles runAvg speedWind from/ knotsBaromVisibWave heightAir tempDewpointWater temp
2014-Nov-24 04:21N 29°26' W 094°50'5 6.3
2014-Nov-24 03:32N 29°31' W 094°53'7 6.6
2014-Nov-24 02:33N 29°36' W 094°57'7 6.4
2014-Nov-24 01:30N 29°42' W 095°00'7 0.2
2014-Nov-22 20:33N 29°44' W 095°08'0 0.0
2014-Nov-22 19:20N 29°44' W 095°08'0 0.0
2014-Nov-22 18:28N 29°44' W 095°08'0 0.0
2014-Nov-22 17:33N 29°44' W 095°08'0 0.0
2014-Nov-22 15:32N 29°44' W 095°08'0 0.0
2014-Nov-22 14:27N 29°44' W 095°08'0 0.0
2014-Nov-22 13:22N 29°44' W 095°08'6 0.6
2014-Nov-22 03:12N 29°42' W 095°01'5 7.1
2014-Nov-22 02:33N 29°39' W 094°58'8 7.8
2014-Nov-22 01:33N 29°32' W 094°54'  
Track history (hours):
 
Tides and Currents Weather Stations Pressure Air Temp Water Temp Dewpoint Dewpoint Depression Visibility Wind Speed Wind Dir Waves Ship Positions

Dolphin

Owner: PENN MARITIME INC, Seattle, WA. More information available from US FCC via Universal Licensing System and Coast Guard Vessel Documentation Center.

Last reported at 2014-Nov-24 04:21 UTC. Time now 2014-Nov-24 16:27 UTC.
Position N 29°26' W 094°50'.

Length 41 m; draft 6.9 m.

Type: Towing. MMSI: 366920980.

Date/timePositionNaut miles runAvg speedWind from/ knotsBaromVisibWave heightAir tempDewpointWater temp
2014-Nov-24 04:21N 29°26' W 094°50'5 6.3
2014-Nov-24 03:32N 29°31' W 094°53'7 6.6
2014-Nov-24 02:33N 29°36' W 094°57'7 6.4
2014-Nov-24 01:30N 29°42' W 095°00'7 0.2
2014-Nov-22 20:33N 29°44' W 095°08'0 0.0
2014-Nov-22 19:20N 29°44' W 095°08'0 0.0
2014-Nov-22 18:28N 29°44' W 095°08'0 0.0
2014-Nov-22 17:33N 29°44' W 095°08'0 0.0
2014-Nov-22 15:32N 29°44' W 095°08'0 0.0
2014-Nov-22 14:27N 29°44' W 095°08'0 0.0
2014-Nov-22 13:22N 29°44' W 095°08'6 0.6
2014-Nov-22 03:12N 29°42' W 095°01'5 7.1
2014-Nov-22 02:33N 29°39' W 094°58'8 7.8
2014-Nov-22 01:33N 29°32' W 094°54'  

Dump ship's entire track history